Time;durP1;ratioP1;P1;durP2;ratioP2;P2;SDS_P1;SDS_P2;PMS_P1;PMS_P2;Temp;Humidity;BMP_temperature;BMP_pressure;BME280_temperature;BME280_humidity;BME280_pressure;Samples;Min_cycle;Max_cycle;Signal;HPM_P1;HPM_P2
2022/05/30 00:01:20;;;;;;;11.98;6.15;;;;;;;22.20;54.16;98531.09;5064896;28;20036;-87
2022/05/30 00:03:46;;;;;;;13.07;6.00;;;;;;;22.65;53.98;98585.72;5045269;28;20026;-87
2022/05/30 00:06:18;;;;;;;12.88;6.95;;;;;;;22.40;54.50;98547.13;5032637;28;20033;-87
2022/05/30 00:08:43;;;;;;;11.23;6.50;;;;;;;22.95;54.89;98623.19;5032405;28;20029;-87
2022/05/30 00:11:11;;;;;;;19.23;6.60;;;;;;;22.95;55.29;98625.88;5032471;28;20113;-87
2022/05/30 00:13:37;;;;;;;11.70;6.70;;;;;;;22.92;55.24;98631.84;5049013;28;20052;-87
2022/05/30 00:16:23;;;;;;;12.68;6.90;;;;;;;22.87;55.94;98626.47;5032386;28;20034;-87
2022/05/30 00:18:49;;;;;;;14.52;7.78;;;;;;;22.66;55.95;98603.47;5033480;28;20028;-87
2022/05/30 00:21:22;;;;;;;12.25;7.43;;;;;;;22.78;56.31;98626.25;5033396;28;20025;-88
2022/05/30 00:23:48;;;;;;;15.10;7.90;;;;;;;22.34;57.01;98569.78;5033184;28;20032;-87
2022/05/30 00:26:14;;;;;;;13.07;8.05;;;;;;;22.71;57.38;98641.91;5032994;28;20092;-87
2022/05/30 00:28:40;;;;;;;16.83;8.10;;;;;;;22.35;58.02;98606.34;5031763;28;20085;-87
2022/05/30 00:31:11;;;;;;;13.77;8.45;;;;;;;22.38;58.11;98608.47;5031884;28;20057;-87
2022/05/30 00:33:38;;;;;;;17.50;9.70;;;;;;;22.50;58.19;98626.97;5031960;28;20618;-87
2022/05/30 00:36:04;;;;;;;15.63;8.27;;;;;;;22.52;57.93;98617.53;5030702;28;20403;-87
2022/05/30 00:38:30;;;;;;;15.63;7.75;;;;;;;22.63;57.63;98665.91;5033065;28;20033;-87
2022/05/30 00:40:57;;;;;;;12.93;7.70;;;;;;;22.07;58.21;98551.34;5033109;28;20036;-87
2022/05/30 00:43:28;;;;;;;17.58;8.32;;;;;;;22.24;57.91;98559.03;5048009;28;20090;-87
2022/05/30 00:45:56;;;;;;;13.82;8.07;;;;;;;22.69;58.39;98622.53;5031207;28;20052;-87
2022/05/30 00:48:31;;;;;;;16.83;8.10;;;;;;;22.68;58.64;98633.59;5032646;28;20029;-88
2022/05/30 00:51:04;;;;;;;15.68;8.95;;;;;;;22.21;58.23;98589.19;5032542;28;20498;-87
2022/05/30 00:53:33;;;;;;;13.77;8.85;;;;;;;22.43;58.27;98643.41;5047756;28;20045;-87
2022/05/30 00:56:02;;;;;;;16.05;8.20;;;;;;;22.60;58.39;98655.69;5031262;28;20022;-87
2022/05/30 00:58:31;;;;;;;14.07;8.07;;;;;;;22.24;58.64;98610.13;5032434;28;20044;-87
2022/05/30 01:00:58;;;;;;;13.60;7.40;;;;;;;22.14;58.54;98578.72;5032387;28;20530;-87
2022/05/30 01:08:53;;;;;;;14.70;7.75;;;;;;;22.23;58.42;98613.91;5032229;28;20517;-86
2022/05/30 01:11:18;;;;;;;16.67;8.15;;;;;;;22.06;58.35;98600.00;5031934;28;20034;-86
2022/05/30 01:13:44;;;;;;;13.93;7.80;;;;;;;21.83;58.89;98578.03;5030953;28;20094;-87
2022/05/30 01:16:10;;;;;;;14.20;7.78;;;;;;;21.97;58.93;98572.88;5032102;28;20025;-87
2022/05/30 01:18:45;;;;;;;13.45;7.50;;;;;;;22.05;58.97;98584.97;5030978;28;20033;-87
2022/05/30 01:21:35;;;;;;;12.93;7.90;;;;;;;22.24;59.28;98620.91;5030876;28;20040;-87
2022/05/30 01:24:22;;;;;;;15.00;7.15;;;;;;;22.24;58.88;98637.03;5032070;28;20032;-86
2022/05/30 01:27:04;;;;;;;15.75;7.80;;;;;;;22.16;58.85;98630.34;5031888;28;20029;-87
2022/05/30 01:29:34;;;;;;;11.30;6.22;;;;;;;22.01;58.98;98635.75;5031806;28;20159;-86
2022/05/30 01:32:00;;;;;;;16.08;6.70;;;;;;;21.62;58.85;98584.56;5030821;28;20418;-86
2022/05/30 01:34:27;;;;;;;10.23;6.32;;;;;;;21.84;58.52;98638.75;5032269;28;20033;-86
2022/05/30 01:36:54;;;;;;;15.90;6.60;;;;;;;21.66;58.64;98592.88;5047831;28;20476;-86
2022/05/30 01:39:19;;;;;;;14.35;6.90;;;;;;;21.54;58.75;98585.88;5031096;28;20106;-87
2022/05/30 01:41:45;;;;;;;14.60;6.97;;;;;;;22.04;58.46;98666.69;5031032;28;20084;-87
2022/05/30 01:44:11;;;;;;;15.07;7.07;;;;;;;21.39;58.24;98559.06;5030590;28;20111;-86
2022/05/30 01:46:36;;;;;;;10.50;5.88;;;;;;;21.49;58.09;98550.19;5030187;28;20031;-87
2022/05/30 01:49:02;;;;;;;17.10;6.55;;;;;;;21.50;57.93;98560.66;5031467;28;20029;-87
2022/05/30 01:51:28;;;;;;;12.63;6.07;;;;;;;21.66;57.75;98582.94;5030306;28;20108;-86
2022/05/30 01:53:54;;;;;;;11.25;5.57;;;;;;;21.82;57.64;98613.25;5031337;28;20100;-87
2022/05/30 01:56:20;;;;;;;9.77;5.63;;;;;;;21.59;57.45;98592.34;5031361;28;20026;-86
2022/05/30 01:58:45;;;;;;;10.80;5.63;;;;;;;21.45;57.62;98576.78;5031646;28;20030;-86
2022/05/30 02:01:20;;;;;;;10.32;5.13;;;;;;;21.93;57.42;98662.38;5031616;28;20107;-86
2022/05/30 02:03:47;;;;;;;8.70;5.47;;;;;;;21.93;57.46;98668.56;5031492;28;20079;-87
2022/05/30 02:06:13;;;;;;;9.52;5.38;;;;;;;21.33;57.51;98597.75;5046731;28;20025;-85
2022/05/30 02:08:38;;;;;;;9.05;4.95;;;;;;;20.96;57.60;98535.50;5031498;28;20086;-87
2022/05/30 02:11:04;;;;;;;12.32;5.03;;;;;;;21.71;57.37;98671.56;5031632;28;20564;-86
2022/05/30 02:13:29;;;;;;;7.63;5.05;;;;;;;20.91;57.41;98547.84;5030283;28;20021;-86
2022/05/30 02:18:38;;;;;;;10.60;5.57;;;;;;;21.03;57.59;98598.56;5031795;28;20544;-86
2022/05/30 02:21:04;;;;;;;15.10;4.90;;;;;;;21.34;57.61;98649.56;5031881;28;20021;-86
2022/05/30 02:23:29;;;;;;;9.23;4.97;;;;;;;21.53;57.81;98689.03;5047180;28;20030;-86
2022/05/30 02:25:55;;;;;;;7.88;4.60;;;;;;;21.18;57.76;98641.50;5031822;28;20026;-86
2022/05/30 02:28:20;;;;;;;9.77;4.68;;;;;;;20.94;57.99;98602.84;5031887;28;20037;-87
2022/05/30 02:30:46;;;;;;;9.07;4.82;;;;;;;20.73;57.78;98569.00;5030395;28;20025;-87
2022/05/30 02:38:40;;;;;;;10.70;5.68;;;;;;;20.89;58.29;98649.28;5031489;28;20128;-86
2022/05/30 02:41:05;;;;;;;8.70;4.50;;;;;;;21.16;58.29;98723.38;5030490;28;20468;-87
2022/05/30 02:43:31;;;;;;;9.27;5.50;;;;;;;20.61;58.33;98610.31;5046731;28;20109;-87
2022/05/30 02:45:56;;;;;;;10.20;5.45;;;;;;;20.69;58.25;98627.75;5046617;28;20029;-86
2022/05/30 02:48:21;;;;;;;8.25;4.70;;;;;;;20.28;58.06;98560.59;5030958;28;20079;-86
2022/05/30 02:50:47;;;;;;;8.60;5.07;;;;;;;20.59;58.00;98628.53;5029449;28;20120;-87
2022/05/30 02:53:12;;;;;;;11.32;5.47;;;;;;;20.90;58.00;98679.59;5029507;28;20053;-87
2022/05/30 02:55:38;;;;;;;9.02;5.40;;;;;;;20.29;57.97;98591.72;5029788;28;20025;-86
2022/05/30 02:58:04;;;;;;;9.35;5.32;;;;;;;20.37;58.02;98625.25;5029805;28;20083;-87
2022/05/30 03:00:29;;;;;;;7.50;5.10;;;;;;;20.58;58.13;98644.91;5033672;28;20033;-86
2022/05/30 03:02:55;;;;;;;7.60;4.60;;;;;;;20.92;58.02;98707.75;5034799;28;20025;-87
2022/05/30 03:05:21;;;;;;;7.43;4.93;;;;;;;20.52;58.18;98648.63;5035008;28;20030;-87
2022/05/30 03:07:46;;;;;;;9.45;5.13;;;;;;;20.85;57.95;98701.84;5033726;28;20026;-86
2022/05/30 03:10:12;;;;;;;7.28;4.60;;;;;;;19.56;57.91;98504.34;5050403;28;20604;-87
2022/05/30 03:12:37;;;;;;;8.02;5.10;;;;;;;20.66;57.76;98681.94;5050199;28;20029;-87
2022/05/30 03:15:03;;;;;;;8.10;5.15;;;;;;;20.60;57.99;98662.34;5033947;28;20097;-86
2022/05/30 03:17:28;;;;;;;10.00;4.90;;;;;;;20.78;57.96;98716.56;5034450;28;20094;-86
2022/05/30 03:19:54;;;;;;;7.15;4.95;;;;;;;20.66;58.11;98716.00;5034209;28;20025;-86
2022/05/30 03:22:19;;;;;;;7.18;4.97;;;;;;;20.34;58.14;98654.44;5033055;28;20097;-86
2022/05/30 03:24:45;;;;;;;8.80;5.05;;;;;;;20.19;58.20;98658.69;5032986;28;20476;-87
2022/05/30 03:27:10;;;;;;;7.60;4.57;;;;;;;20.42;58.43;98688.81;5032832;28;20034;-86
2022/05/30 03:29:35;;;;;;;12.40;5.18;;;;;;;20.86;58.38;98769.75;5034167;28;20044;-86
2022/05/30 03:32:01;;;;;;;11.60;5.18;;;;;;;20.67;58.33;98749.78;5034309;28;20075;-86
2022/05/30 03:34:26;;;;;;;10.95;5.45;;;;;;;20.51;58.32;98736.31;5034119;28;20018;-86
2022/05/30 03:36:52;;;;;;;10.77;5.30;;;;;;;20.69;58.80;98774.47;5033911;28;20056;-86
2022/05/30 03:39:17;;;;;;;12.15;5.70;;;;;;;20.34;58.97;98733.00;5034114;28;20100;-86
2022/05/30 03:41:42;;;;;;;10.77;6.20;;;;;;;20.32;59.14;98751.22;5033977;28;20425;-86
2022/05/30 03:44:08;;;;;;;7.03;5.60;;;;;;;19.80;59.46;98668.09;5033879;28;20037;-86
2022/05/30 03:46:33;;;;;;;10.43;5.70;;;;;;;20.13;59.16;98699.94;5032830;28;20489;-86
2022/05/30 03:48:59;;;;;;;11.82;6.07;;;;;;;20.43;59.21;98752.09;5034414;28;20026;-86
2022/05/30 03:51:25;;;;;;;8.40;6.20;;;;;;;20.18;59.53;98732.13;5034222;28;20033;-87
2022/05/30 03:53:51;;;;;;;12.43;7.60;;;;;;;20.33;59.50;98747.47;5034067;28;20048;-87
2022/05/30 03:56:21;;;;;;;10.23;7.70;;;;;;;20.83;59.45;98822.06;5033157;28;20036;-86
2022/05/30 03:58:46;;;;;;;11.27;7.93;;;;;;;20.90;59.59;98814.56;5032816;28;20506;-87
2022/05/30 04:01:12;;;;;;;12.43;7.78;;;;;;;20.97;59.32;98821.56;5049219;28;20100;-87
2022/05/30 04:03:39;;;;;;;11.35;7.32;;;;;;;20.43;59.42;98736.81;5033755;28;20030;-86
2022/05/30 04:06:05;;;;;;;12.00;7.82;;;;;;;21.04;59.39;98822.13;5034327;28;20515;-86
2022/05/30 04:08:31;;;;;;;11.18;7.38;;;;;;;20.55;59.48;98750.00;5049376;28;20039;-86
2022/05/30 04:10:57;;;;;;;10.60;7.97;;;;;;;21.07;59.47;98825.09;5032547;28;20120;-87
2022/05/30 04:13:22;;;;;;;14.18;8.75;;;;;;;21.07;59.39;98827.78;5033846;28;20033;-87
2022/05/30 04:15:48;;;;;;;9.65;7.50;;;;;;;20.57;59.55;98780.06;5032346;28;20021;-86
2022/05/30 04:18:13;;;;;;;10.90;7.55;;;;;;;20.39;59.76;98745.63;5031979;28;20029;-87
2022/05/30 04:20:41;;;;;;;15.30;8.10;;;;;;;20.58;59.51;98770.94;5032000;28;20418;-87
2022/05/30 04:23:06;;;;;;;13.85;7.97;;;;;;;21.06;59.57;98877.16;5031862;28;20033;-86
2022/05/30 04:25:32;;;;;;;11.57;7.47;;;;;;;21.17;59.51;98835.84;5031949;28;20109;-87
2022/05/30 04:27:58;;;;;;;9.50;7.43;;;;;;;20.77;59.19;98774.78;5033010;28;20037;-86
2022/05/30 04:30:24;;;;;;;10.07;7.35;;;;;;;20.77;59.11;98772.09;5033009;28;20025;-87
2022/05/30 04:32:49;;;;;;;12.23;7.57;;;;;;;21.29;59.02;98851.75;5051963;28;20077;-86
2022/05/30 04:35:16;;;;;;;12.65;8.02;;;;;;;21.29;58.76;98856.31;5043896;28;20033;-87
2022/05/30 04:37:41;;;;;;;10.77;9.30;;;;;;;20.91;58.89;98816.19;5032890;28;20026;-87
2022/05/30 04:40:11;;;;;;;12.80;9.52;;;;;;;21.34;58.59;98859.03;5032755;28;20575;-86
2022/05/30 04:42:36;;;;;;;15.55;10.85;;;;;;;21.11;58.73;98822.69;5032755;28;20032;-87
2022/05/30 04:45:02;;;;;;;8.65;6.40;;;;;;;21.37;58.30;98864.66;5032751;28;20029;-87
2022/05/30 04:47:27;;;;;;;10.57;6.95;;;;;;;21.27;59.01;98871.88;5048390;28;20510;-86
2022/05/30 04:49:53;;;;;;;13.13;7.03;;;;;;;21.16;58.84;98852.22;5032542;28;20052;-86
2022/05/30 04:52:18;;;;;;;11.00;6.47;;;;;;;21.01;58.56;98815.41;5048355;28;20446;-87
2022/05/30 04:54:44;;;;;;;9.80;6.82;;;;;;;21.33;58.56;98863.59;5032865;28;20033;-87
2022/05/30 04:57:09;;;;;;;14.20;6.70;;;;;;;21.17;58.33;98843.91;5031679;28;20033;-86
2022/05/30 04:59:38;;;;;;;9.32;6.68;;;;;;;21.04;58.03;98800.66;5048401;28;20120;-87
2022/05/30 05:02:04;;;;;;;10.00;6.32;;;;;;;21.06;57.80;98809.25;5030931;28;20026;-86
2022/05/30 05:04:30;;;;;;;10.85;6.47;;;;;;;21.21;57.71;98798.53;5032389;28;20419;-86
2022/05/30 05:06:55;;;;;;;9.40;6.65;;;;;;;20.99;57.47;98773.81;5032265;28;20029;-86
2022/05/30 05:09:29;;;;;;;11.82;6.25;;;;;;;21.64;57.40;98871.72;5032171;28;20022;-87
2022/05/30 05:11:54;;;;;;;11.90;5.97;;;;;;;21.19;57.45;98812.22;5030828;28;20112;-86
2022/05/30 05:14:19;;;;;;;11.25;5.95;;;;;;;21.42;57.38;98818.22;5030711;28;20570;-87
2022/05/30 05:16:45;;;;;;;7.00;5.57;;;;;;;21.64;57.06;98869.03;5032195;28;20026;-87
2022/05/30 05:19:11;;;;;;;8.48;5.80;;;;;;;21.71;56.80;98874.97;5047267;28;20418;-86
2022/05/30 05:21:39;;;;;;;8.57;5.63;;;;;;;21.46;56.19;98836.22;5031368;28;20034;-86
2022/05/30 05:24:06;;;;;;;12.93;5.15;;;;;;;21.84;56.16;98886.00;5047233;28;20571;-86
2022/05/30 05:26:32;;;;;;;8.77;5.07;;;;;;;21.82;55.75;98881.97;5030702;28;20030;-87
2022/05/30 05:28:58;;;;;;;10.40;5.40;;;;;;;21.68;55.66;98870.13;5031921;28;20040;-86
2022/05/30 05:31:25;;;;;;;6.43;4.78;;;;;;;21.90;55.58;98892.19;5031854;28;20031;-87
2022/05/30 05:33:52;;;;;;;9.07;5.03;;;;;;;21.94;55.63;98895.94;5047148;28;20021;-87
2022/05/30 05:36:24;;;;;;;9.57;4.80;;;;;;;21.65;55.66;98849.97;5028053;28;20033;-86
2022/05/30 05:38:50;;;;;;;9.48;5.57;;;;;;;21.77;55.74;98849.72;5011415;28;20044;-86
2022/05/30 05:41:16;;;;;;;7.80;5.03;;;;;;;21.32;55.30;98783.28;5018172;28;20032;-86
2022/05/30 05:43:41;;;;;;;6.45;4.72;;;;;;;21.43;54.73;98793.78;5031219;28;20041;-85
2022/05/30 05:46:18;;;;;;;5.72;4.60;;;;;;;22.11;54.86;98901.91;5018246;28;20026;-86
2022/05/30 05:48:44;;;;;;;7.25;5.20;;;;;;;22.22;54.82;98902.72;5012918;28;20040;-86
2022/05/30 05:51:10;;;;;;;5.93;4.32;;;;;;;21.51;54.32;98828.16;5031223;28;20025;-85
2022/05/30 05:53:36;;;;;;;14.10;5.90;;;;;;;20.78;54.18;98676.31;5029900;28;20046;-86
2022/05/30 05:56:20;;;;;;;10.65;5.82;;;;;;;22.29;53.86;98911.31;5029849;28;20028;-86
2022/05/30 05:58:46;;;;;;;8.07;4.28;;;;;;;22.09;53.75;98884.44;5025072;28;20029;-86
2022/05/30 06:01:18;;;;;;;8.23;5.15;;;;;;;22.33;53.86;98919.69;5017563;28;20022;-86
2022/05/30 06:03:44;;;;;;;6.75;5.05;;;;;;;22.29;53.74;98932.03;5028682;28;20517;-86
2022/05/30 06:06:09;;;;;;;8.52;4.00;;;;;;;21.73;53.22;98816.41;5043740;28;20026;-87
2022/05/30 06:08:35;;;;;;;6.82;4.55;;;;;;;22.39;53.07;98923.97;5011877;28;20029;-87
2022/05/30 06:11:11;;;;;;;7.50;4.40;;;;;;;21.79;53.03;98852.94;5011841;28;21207;-86
2022/05/30 06:13:39;;;;;;;8.52;4.68;;;;;;;22.40;52.97;98929.09;5020938;28;20060;-87
2022/05/30 06:16:14;;;;;;;8.43;5.00;;;;;;;21.88;52.94;98849.44;5014135;28;20041;-86
2022/05/30 06:18:39;;;;;;;4.70;4.20;;;;;;;22.09;53.08;98882.53;5012284;28;20050;-87
2022/05/30 06:21:06;;;;;;;6.43;3.95;;;;;;;22.46;53.08;98922.63;5019511;28;20036;-87
2022/05/30 06:23:31;;;;;;;8.05;5.13;;;;;;;22.30;53.00;98875.31;5027629;28;20034;-87
2022/05/30 06:25:59;;;;;;;7.93;4.90;;;;;;;22.64;52.97;98921.25;5030125;28;20116;-87
2022/05/30 06:28:24;;;;;;;6.13;4.53;;;;;;;22.01;53.02;98818.53;5029784;28;20045;-86
2022/05/30 06:30:50;;;;;;;7.72;4.35;;;;;;;22.51;52.67;98894.91;5028586;28;20468;-86
2022/05/30 06:33:15;;;;;;;6.55;4.75;;;;;;;22.16;52.31;98817.75;5012097;28;20040;-87
2022/05/30 06:36:24;;;;;;;7.95;5.22;;;;;;;22.96;52.15;98936.28;5020804;28;20037;-87
2022/05/30 06:38:50;;;;;;;9.45;5.03;;;;;;;22.82;52.33;98915.31;5023274;28;20051;-87
2022/05/30 06:41:21;;;;;;;6.47;5.00;;;;;;;22.86;51.65;98918.28;5026685;28;20529;-84
2022/05/30 06:43:47;;;;;;;9.43;5.50;;;;;;;22.83;51.86;98925.00;5023110;28;20032;-86
2022/05/30 06:46:14;;;;;;;6.28;4.80;;;;;;;22.98;51.63;98928.75;5018930;28;20029;-87
2022/05/30 06:48:40;;;;;;;8.57;5.13;;;;;;;23.03;51.68;98931.41;5023683;28;20028;-86
2022/05/30 06:51:09;;;;;;;7.43;6.10;;;;;;;23.19;51.59;98943.78;5019764;28;20104;-87
2022/05/30 06:53:35;;;;;;;9.02;5.63;;;;;;;22.80;51.64;98887.06;5040359;28;20049;-87
2022/05/30 06:56:00;;;;;;;9.77;6.38;;;;;;;23.35;51.22;98956.09;5027001;28;20030;-86
2022/05/30 06:58:27;;;;;;;9.30;8.07;;;;;;;23.01;50.91;98893.19;5032078;28;20033;-87
2022/05/30 07:00:58;;;;;;;13.55;7.75;;;;;;;22.96;51.17;98871.69;5032649;28;20071;-87
2022/05/30 07:03:24;;;;;;;8.43;6.47;;;;;;;22.86;50.49;98845.59;5024232;28;20054;-87
2022/05/30 07:05:49;;;;;;;11.70;8.13;;;;;;;23.58;50.55;98949.28;5025276;28;20108;-87
2022/05/30 07:08:15;;;;;;;8.18;4.65;;;;;;;23.00;50.27;98852.00;5022018;28;20021;-87
2022/05/30 07:10:41;;;;;;;10.00;4.93;;;;;;;23.39;50.00;98930.22;5028989;28;20029;-87
2022/05/30 07:13:07;;;;;;;10.00;5.60;;;;;;;23.37;49.99;98907.34;5032921;28;20056;-87
2022/05/30 07:15:35;;;;;;;8.68;5.53;;;;;;;23.69;50.21;98939.25;5029977;28;20057;-88
2022/05/30 07:18:07;;;;;;;8.80;5.60;;;;;;;23.54;50.44;98913.19;5012567;28;20055;-87
2022/05/30 07:20:32;;;;;;;9.85;6.32;;;;;;;23.60;50.42;98908.59;5019832;28;20120;-86
2022/05/30 07:22:58;;;;;;;7.80;5.47;;;;;;;23.64;50.33;98920.44;5015933;28;20563;-89
2022/05/30 07:25:23;;;;;;;9.20;6.10;;;;;;;22.89;50.22;98783.13;5020939;28;20025;-88
2022/05/30 07:27:48;;;;;;;9.50;5.38;;;;;;;23.77;50.02;98909.03;5026102;28;20017;-87
2022/05/30 07:30:14;;;;;;;6.38;3.92;;;;;;;23.63;49.59;98891.88;5032960;28;20419;-87
2022/05/30 07:32:40;;;;;;;7.88;4.68;;;;;;;23.42;48.97;98854.25;5020660;28;20100;-87
2022/05/30 07:35:06;;;;;;;8.07;6.45;;;;;;;23.38;49.25;98834.31;5030691;28;20398;-87
2022/05/30 07:37:32;;;;;;;7.15;5.68;;;;;;;23.56;49.30;98872.50;5034411;28;20025;-87
2022/05/30 07:39:57;;;;;;;8.05;5.05;;;;;;;23.55;49.13;98849.34;5049991;28;20028;-87
2022/05/30 07:42:23;;;;;;;8.35;5.03;;;;;;;23.61;48.88;98843.63;5034271;28;20430;-88
2022/05/30 07:44:49;;;;;;;6.60;4.45;;;;;;;23.95;48.04;98896.81;5045064;28;20122;-87
2022/05/30 07:47:17;;;;;;;6.38;3.80;;;;;;;24.49;47.52;98974.91;5045158;28;20045;-85
2022/05/30 07:49:43;;;;;;;7.32;3.97;;;;;;;24.29;46.15;98911.13;5029680;28;20498;-86
2022/05/30 07:52:09;;;;;;;14.02;10.07;;;;;;;24.68;46.66;98970.44;5029577;28;20025;-86
2022/05/30 07:54:35;;;;;;;10.15;7.78;;;;;;;24.50;46.10;98943.31;5030076;28;20087;-85
2022/05/30 07:57:04;;;;;;;7.70;4.53;;;;;;;24.20;45.40;98871.50;5031752;28;20429;-87
2022/05/30 07:59:30;;;;;;;9.95;6.78;;;;;;;24.70;45.88;98951.25;5023546;28;20034;-86
2022/05/30 08:01:57;;;;;;;5.97;5.18;;;;;;;24.92;45.45;98989.38;5013516;28;20036;-85
2022/05/30 08:04:22;;;;;;;7.35;5.13;;;;;;;24.65;44.86;98921.59;5013427;28;20562;-86
2022/05/30 08:06:47;;;;;;;12.48;9.50;;;;;;;24.59;45.02;98914.66;5033424;28;20117;-87
2022/05/30 08:09:13;;;;;;;11.60;9.18;;;;;;;25.02;43.71;98972.28;5019251;28;20025;-86
2022/05/30 08:11:38;;;;;;;9.45;5.15;;;;;;;24.21;43.59;98825.38;5059057;28;20018;-86
2022/05/30 08:14:06;;;;;;;5.72;3.97;;;;;;;24.58;43.43;98886.84;5014626;28;20013;-87
2022/05/30 08:16:34;;;;;;;7.40;5.90;;;;;;;24.57;43.50;98870.94;5019332;28;20022;-86
2022/05/30 08:18:59;;;;;;;6.53;4.65;;;;;;;25.13;43.30;98941.38;5010568;28;20040;-86
2022/05/30 08:21:24;;;;;;;9.68;5.90;;;;;;;25.47;43.07;98975.59;5012066;28;20022;-85
2022/05/30 08:23:50;;;;;;;7.50;5.85;;;;;;;25.04;42.93;98910.69;5026675;28;20017;-86
2022/05/30 08:26:15;;;;;;;7.18;4.20;;;;;;;25.06;41.58;98905.78;5045387;28;20437;-87
2022/05/30 08:28:41;;;;;;;7.65;4.30;;;;;;;25.62;41.40;98978.91;5032158;28;20022;-87
2022/05/30 08:31:07;;;;;;;8.10;6.18;;;;;;;25.40;41.04;98932.69;5021660;28;20406;-86
2022/05/30 08:33:32;;;;;;;9.15;5.47;;;;;;;25.09;40.64;98858.50;5028512;28;20026;-86
2022/05/30 08:36:07;;;;;;;6.32;4.07;;;;;;;25.94;39.38;98999.06;5026263;28;20224;-87
2022/05/30 08:38:33;;;;;;;7.55;4.05;;;;;;;26.00;40.16;98986.25;5017105;28;20029;-87
2022/05/30 08:43:52;;;;;;;11.70;9.82;;;;;;;26.11;39.95;98968.81;5019272;28;20464;-87
2022/05/30 08:46:57;;;;;;;11.40;6.40;;;;;;;26.35;39.24;98984.97;5033501;28;20252;-88
2022/05/30 08:49:32;;;;;;;6.32;5.28;;;;;;;26.38;39.43;98979.78;5017409;28;20422;-87
2022/05/30 08:52:41;;;;;;;10.05;6.00;;;;;;;26.45;39.21;98984.81;5018822;28;20026;-87
2022/05/30 08:55:23;;;;;;;9.45;5.55;;;;;;;26.25;38.34;98946.13;5025686;28;20104;-87
2022/05/30 08:58:16;;;;;;;10.77;4.95;;;;;;;26.68;37.59;98997.41;5018742;28;20033;-86
2022/05/30 09:00:55;;;;;;;7.30;5.20;;;;;;;26.74;38.37;98993.53;5012959;28;20480;-86
2022/05/30 09:03:41;;;;;;;8.02;5.38;;;;;;;26.95;38.40;99015.66;5042006;28;20458;-85
2022/05/30 09:06:22;;;;;;;9.30;4.72;;;;;;;27.11;38.66;99000.75;5017551;28;20036;-85
2022/05/30 09:08:56;;;;;;;6.70;5.07;;;;;;;27.10;38.36;98972.06;5016524;28;20415;-87
2022/05/30 09:12:03;;;;;;;6.18;4.35;;;;;;;26.74;38.32;98906.06;5020291;28;20034;-87
2022/05/30 09:14:39;;;;;;;7.63;5.45;;;;;;;27.45;38.45;98981.38;5023956;28;20091;-87
2022/05/30 09:17:13;;;;;;;6.55;4.75;;;;;;;27.65;37.92;98974.78;5027980;28;20422;-85
2022/05/30 09:19:39;;;;;;;10.45;5.25;;;;;;;27.38;37.81;98926.75;5024359;28;20098;-85
2022/05/30 09:22:09;;;;;;;6.68;4.60;;;;;;;27.70;37.54;98963.84;5043632;28;20024;-87
2022/05/30 09:24:35;;;;;;;7.55;5.50;;;;;;;27.52;37.43;98930.28;5029787;28;20053;-84
2022/05/30 09:27:03;;;;;;;5.00;4.50;;;;;;;28.45;37.32;99012.09;5029586;28;20021;-86
2022/05/30 09:29:41;;;;;;;7.68;4.28;;;;;;;28.17;36.59;98929.91;5025235;28;20061;-86
2022/05/30 09:32:16;;;;;;;8.43;4.45;;;;;;;28.94;36.36;99014.97;5027342;28;20026;-86
2022/05/30 09:34:47;;;;;;;7.38;4.78;;;;;;;28.85;36.11;98971.47;5051724;28;20078;-84
2022/05/30 09:37:39;;;;;;;9.05;5.32;;;;;;;29.31;34.98;99022.69;5038065;28;20109;-84
2022/05/30 09:40:05;;;;;;;6.85;5.30;;;;;;;29.38;35.33;99000.50;5029296;28;20395;-87
2022/05/30 09:42:37;;;;;;;5.57;4.13;;;;;;;29.42;34.35;98983.22;5029816;28;20036;-86
2022/05/30 09:45:12;;;;;;;8.68;4.75;;;;;;;29.28;32.82;98949.91;5027762;28;20029;-88
2022/05/30 09:47:37;;;;;;;7.30;6.53;;;;;;;28.88;33.40;98907.53;5023687;28;20112;-84
2022/05/30 09:50:20;;;;;;;6.25;5.35;;;;;;;30.07;32.29;99018.97;5039254;28;20129;-86
2022/05/30 09:52:46;;;;;;;7.50;3.78;;;;;;;29.71;33.01;98944.56;5020231;28;20053;-85
2022/05/30 09:55:34;;;;;;;5.05;4.30;;;;;;;30.46;32.23;99024.25;5014251;28;20558;-85
2022/05/30 09:58:00;;;;;;;6.40;4.40;;;;;;;30.04;32.29;98944.16;5019425;28;20522;-85
2022/05/30 10:00:38;;;;;;;7.63;4.57;;;;;;;30.72;31.63;99027.00;5024670;28;20025;-86
2022/05/30 10:03:24;;;;;;;7.35;4.53;;;;;;;30.40;31.57;98964.78;5018034;28;20029;-86
2022/05/30 10:05:49;;;;;;;7.03;4.75;;;;;;;30.32;31.43;98923.63;5028871;28;20033;-86
2022/05/30 10:08:27;;;;;;;6.85;3.78;;;;;;;30.16;30.29;98881.69;5017391;28;20087;-86
2022/05/30 10:10:56;;;;;;;5.57;4.10;;;;;;;31.04;30.93;99016.66;5030558;28;20033;-85
2022/05/30 10:13:42;;;;;;;6.78;3.92;;;;;;;30.94;30.73;99004.97;5050428;28;20042;-84
2022/05/30 10:16:14;;;;;;;6.93;5.60;;;;;;;31.11;30.74;99025.13;5045821;28;20065;-84
2022/05/30 10:18:43;;;;;;;5.32;4.70;;;;;;;31.25;30.44;99021.13;5037981;28;20029;-85
2022/05/30 10:21:27;;;;;;;6.68;5.80;;;;;;;31.43;29.83;99026.50;5037233;28;20469;-85
2022/05/30 10:30:45;;;;;;;5.47;4.65;;;;;;;32.04;28.53;99022.31;5030444;28;20098;-85
2022/05/30 10:33:20;;;;;;;5.97;4.60;;;;;;;32.16;28.18;99027.06;5037924;28;20044;-85
2022/05/30 10:35:56;;;;;;;7.32;4.57;;;;;;;32.13;28.68;99023.06;5042806;28;20025;-85
2022/05/30 10:38:34;;;;;;;6.85;3.38;;;;;;;32.22;29.07;99018.31;5042938;28;20108;-85
2022/05/30 10:41:36;;;;;;;7.78;4.00;;;;;;;32.36;28.03;99026.25;5019172;28;20089;-85
2022/05/30 10:44:17;;;;;;;6.13;4.18;;;;;;;31.86;27.02;98947.09;5029282;28;20033;-85
2022/05/30 10:47:16;;;;;;;6.53;3.30;;;;;;;32.28;28.30;99031.81;5028970;28;20026;-85
2022/05/30 10:49:48;;;;;;;6.07;4.10;;;;;;;31.75;28.41;98943.16;5036207;28;20084;-85
2022/05/30 10:52:37;;;;;;;5.75;3.50;;;;;;;32.06;27.31;98940.84;5036659;28;20404;-85
2022/05/30 10:55:22;;;;;;;8.20;4.07;;;;;;;32.31;26.57;98973.75;5023230;28;20039;-86
2022/05/30 10:57:55;;;;;;;11.52;4.20;;;;;;;32.60;27.55;99013.84;5017485;28;20515;-83
2022/05/30 11:00:25;;;;;;;6.97;4.18;;;;;;;32.90;27.33;99025.47;5025323;28;20479;-83
2022/05/30 11:02:53;;;;;;;4.45;3.75;;;;;;;33.14;26.91;99036.47;5025406;28;20094;-85
2022/05/30 11:05:25;;;;;;;6.03;3.25;;;;;;;33.02;26.39;98985.28;5022719;28;20120;-85
2022/05/30 11:08:02;;;;;;;6.68;3.30;;;;;;;33.38;26.02;99027.50;5018307;28;20033;-84
2022/05/30 11:10:41;;;;;;;4.63;3.28;;;;;;;33.07;26.15;98943.22;5030827;28;20032;-84
2022/05/30 11:13:44;;;;;;;8.18;3.53;;;;;;;33.64;25.02;99017.03;5028160;28;21968;-84
2022/05/30 11:16:46;;;;;;;5.88;3.88;;;;;;;33.80;25.21;99017.94;5026537;28;20027;-84
2022/05/30 11:19:23;;;;;;;6.63;3.58;;;;;;;33.46;25.85;98980.91;5025819;28;20422;-85
2022/05/30 11:22:12;;;;;;;6.68;3.10;;;;;;;33.62;25.71;98978.25;5018483;28;20562;-85
2022/05/30 11:24:37;;;;;;;5.47;3.38;;;;;;;33.12;25.67;98860.94;5019435;28;20030;-84
2022/05/30 11:27:22;;;;;;;8.43;5.28;;;;;;;34.12;25.55;99012.63;5027913;28;20095;-84
2022/05/30 11:30:02;;;;;;;7.00;4.03;;;;;;;34.25;24.88;99016.16;5017293;28;20180;-83
2022/05/30 11:32:43;;;;;;;4.93;2.90;;;;;;;34.31;25.06;99021.03;5030066;28;20110;-85
2022/05/30 11:35:27;;;;;;;6.03;3.10;;;;;;;34.06;24.90;99012.06;5032767;28;20025;-87
2022/05/30 11:38:26;;;;;;;7.07;3.58;;;;;;;34.18;25.00;99007.72;5040381;28;20043;-85
2022/05/30 11:41:04;;;;;;;8.32;3.88;;;;;;;34.33;24.36;99018.00;5012787;28;20128;-84
2022/05/30 11:43:30;;;;;;;5.72;3.25;;;;;;;34.23;24.60;99013.78;5027462;28;20037;-85
2022/05/30 11:46:07;;;;;;;6.25;3.00;;;;;;;34.27;24.63;99014.66;5021070;28;20029;-85
2022/05/30 11:48:46;;;;;;;5.70;3.25;;;;;;;33.82;24.65;98945.59;5029287;28;20022;-85
2022/05/30 11:51:25;;;;;;;8.55;4.95;;;;;;;34.60;24.24;99014.44;5018915;28;20021;-86
2022/05/30 11:54:01;;;;;;;6.95;4.18;;;;;;;34.68;23.71;99020.91;5034689;28;20355;-85
2022/05/30 11:56:43;;;;;;;7.03;3.35;;;;;;;34.16;23.09;98920.38;5025639;28;20055;-86
2022/05/30 11:59:23;;;;;;;4.55;2.88;;;;;;;34.71;23.45;99012.78;5014013;28;20563;-85
2022/05/30 12:01:53;;;;;;;6.60;3.15;;;;;;;34.36;23.72;98965.22;5026352;28;20079;-86
2022/05/30 12:04:44;;;;;;;7.00;3.20;;;;;;;34.91;23.54;99010.97;5025856;28;20035;-84
2022/05/30 12:07:27;;;;;;;6.35;3.30;;;;;;;34.43;23.37;98913.31;5015021;28;20103;-86